Time;durP1;ratioP1;P1;durP2;ratioP2;P2;SDS_P1;SDS_P2;PMS_P1;PMS_P2;Temp;Humidity;BMP_temperature;BMP_pressure;BME280_temperature;BME280_humidity;BME280_pressure;Samples;Min_cycle;Max_cycle;Signal;HPM_P1;HPM_P2
2022/12/16 00:02:01;;;;;;;8.38;2.97;;;3.70;99.90;;;;;;5074793;28;20082;-63
2022/12/16 00:04:26;;;;;;;11.95;2.90;;;3.60;99.80;;;;;;5074638;28;20039;-63
2022/12/16 00:06:52;;;;;;;12.85;2.90;;;3.60;84.50;;;;;;5071553;28;20032;-63
2022/12/16 00:09:17;;;;;;;6.18;2.30;;;3.60;61.30;;;;;;5074572;28;20032;-63
2022/12/16 00:11:43;;;;;;;10.35;2.88;;;3.60;44.00;;;;;;5073972;28;20094;-63
2022/12/16 00:14:08;;;;;;;7.68;2.70;;;3.40;27.80;;;;;;5073182;28;20044;-64
2022/12/16 00:16:34;;;;;;;7.75;2.55;;;3.40;12.70;;;;;;5074373;28;20021;-64
2022/12/16 00:19:00;;;;;;;12.70;3.10;;;3.40;1.00;;;;;;5074602;28;20086;-63
2022/12/16 00:21:28;;;;;;;14.07;3.40;;;3.40;1.00;;;;;;5064779;28;20406;-63
2022/12/16 00:23:57;;;;;;;10.80;3.22;;;3.40;1.00;;;;;;5067702;28;20501;-63
2022/12/16 00:26:23;;;;;;;19.23;4.28;;;4.80;1.00;;;;;;5073778;28;20036;-63
2022/12/16 00:28:48;;;;;;;13.40;3.55;;;3.30;1.00;;;;;;5073647;28;20508;-64
2022/12/16 00:31:14;;;;;;;10.13;3.10;;;3.10;1.00;;;;;;5073485;28;20039;-63
2022/12/16 00:33:39;;;;;;;9.55;3.35;;;3.00;1.00;;;;;;5071725;28;20033;-63
2022/12/16 00:36:06;;;;;;;15.18;3.70;;;3.00;1.00;;;;;;5073182;28;20051;-64
2022/12/16 00:38:32;;;;;;;12.48;3.35;;;3.10;8.70;;;;;;5073242;28;20041;-63
2022/12/16 00:40:57;;;;;;;13.63;4.53;;;3.00;15.80;;;;;;5073894;28;20038;-64
2022/12/16 00:43:23;;;;;;;15.55;3.70;;;3.10;25.60;;;;;;5074132;28;20029;-63
2022/12/16 00:45:49;;;;;;;12.23;4.72;;;2.90;30.80;;;;;;5067780;28;20033;-63
2022/12/16 00:48:15;;;;;;;11.25;3.47;;;2.90;41.40;;;;;;5073732;28;20047;-63
2022/12/16 00:50:47;;;;;;;7.57;3.15;;;3.00;53.00;;;;;;5072550;28;20557;-63
2022/12/16 00:53:13;;;;;;;11.25;3.75;;;2.70;68.90;;;;;;5072722;28;20124;-64
2022/12/16 00:55:38;;;;;;;13.77;4.13;;;2.90;85.80;;;;;;5073748;28;20457;-64
2022/12/16 00:58:04;;;;;;;12.18;3.83;;;2.80;92.50;;;;;;5072306;28;20407;-63
2022/12/16 01:00:30;;;;;;;14.27;4.28;;;2.80;93.90;;;;;;5073137;28;20076;-63
2022/12/16 01:02:56;;;;;;;14.27;3.70;;;2.80;98.30;;;;;;5072741;28;20064;-64
2022/12/16 01:05:25;;;;;;;7.68;3.88;;;2.80;99.90;;;;;;5069119;28;20075;-64
2022/12/16 01:07:53;;;;;;;10.23;3.50;;;2.90;99.90;;;;;;5072010;28;20033;-63
2022/12/16 01:10:18;;;;;;;10.27;3.70;;;2.70;99.90;;;;;;5073508;28;20068;-64
2022/12/16 01:12:44;;;;;;;10.45;3.28;;;2.70;99.90;;;;;;5069636;28;20075;-64
2022/12/16 01:15:12;;;;;;;11.18;3.90;;;2.80;99.90;;;;;;5073556;28;20449;-64
2022/12/16 01:17:38;;;;;;;7.95;3.42;;;2.80;99.90;;;;;;5072976;28;20076;-64
2022/12/16 01:20:04;;;;;;;11.20;3.03;;;2.90;99.90;;;;;;5072178;28;20041;-63
2022/12/16 01:22:31;;;;;;;6.57;2.35;;;2.80;99.90;;;;;;5072430;28;20501;-64
2022/12/16 01:24:58;;;;;;;7.20;2.40;;;2.90;99.90;;;;;;5072878;28;20375;-63
2022/12/16 01:27:23;;;;;;;11.73;3.05;;;3.00;99.90;;;;;;5072694;28;20028;-64
2022/12/16 01:29:49;;;;;;;9.60;2.90;;;3.00;88.40;;;;;;5070565;28;20036;-64
2022/12/16 01:32:15;;;;;;;7.25;2.40;;;3.00;56.20;;;;;;5072290;28;20647;-64
2022/12/16 01:34:41;;;;;;;9.05;2.75;;;3.00;22.60;;;;;;5071843;28;20044;-64
2022/12/16 01:37:11;;;;;;;7.00;2.70;;;3.00;1.00;;;;;;5072734;28;20041;-64
2022/12/16 01:39:37;;;;;;;11.05;3.17;;;3.00;1.00;;;;;;5071367;28;20043;-64
2022/12/16 01:42:03;;;;;;;10.20;2.90;;;3.00;1.00;;;;;;5070809;28;20123;-64
2022/12/16 01:44:29;;;;;;;11.45;3.33;;;3.00;1.00;;;;;;5052853;28;20032;-64
2022/12/16 01:46:59;;;;;;;9.70;3.13;;;3.00;1.00;;;;;;5065028;28;20449;-64
2022/12/16 01:49:49;;;;;;;11.35;2.78;;;3.20;1.00;;;;;;5069762;28;20048;-64
2022/12/16 01:52:20;;;;;;;11.25;3.33;;;3.30;1.00;;;;;;5070751;28;20498;-64
2022/12/16 01:54:52;;;;;;;13.20;3.70;;;3.20;1.00;;;;;;5071009;28;20040;-64
2022/12/16 01:57:25;;;;;;;10.23;2.85;;;3.30;1.00;;;;;;5071767;28;20047;-64
2022/12/16 01:59:53;;;;;;;10.68;3.05;;;3.20;1.00;;;;;;5071509;28;20091;-64
2022/12/16 02:02:20;;;;;;;6.00;2.70;;;3.20;1.00;;;;;;5110349;22;20052;-85
2022/12/16 02:07:30;;;;;;;10.68;3.00;;;3.10;1.00;;;;;;5092843;28;20574;-85
2022/12/16 02:09:56;;;;;;;6.32;2.53;;;2.90;1.00;;;;;;5089833;28;20119;-85
2022/12/16 02:12:54;;;;;;;8.10;3.17;;;2.90;1.00;;;;;;5076032;22;20036;-64
2022/12/16 02:15:26;;;;;;;9.95;3.05;;;2.70;1.00;;;;;;5054962;28;20567;-64
2022/12/16 02:18:10;;;;;;;7.35;2.75;;;2.50;1.00;;;;;;5055002;28;20087;-64
2022/12/16 02:20:54;;;;;;;13.15;3.38;;;2.30;1.00;;;;;;5072796;28;20041;-64
2022/12/16 02:23:33;;;;;;;8.50;2.70;;;2.20;1.00;;;;;;5064200;28;20079;-64
2022/12/16 02:26:30;;;;;;;11.38;3.05;;;2.30;1.00;;;;;;5033235;28;20052;-64
2022/12/16 02:29:18;;;;;;;11.23;3.60;;;2.20;1.00;;;;;;5028661;28;20049;-64
2022/12/16 02:32:03;;;;;;;8.60;2.88;;;2.30;1.00;;;;;;5028653;28;20042;-64
2022/12/16 02:34:40;;;;;;;7.10;3.03;;;2.20;1.00;;;;;;5029878;28;20033;-64
2022/12/16 02:37:27;;;;;;;9.07;2.78;;;2.20;1.00;;;;;;5031867;28;20087;-64
2022/12/16 02:40:00;;;;;;;8.10;3.22;;;2.20;1.00;;;;;;5032154;28;20033;-64
2022/12/16 02:42:30;;;;;;;8.65;3.08;;;2.20;1.00;;;;;;5031143;28;20037;-64
2022/12/16 02:45:09;;;;;;;13.57;3.17;;;2.10;1.00;;;;;;5031727;28;20405;-64
2022/12/16 02:47:34;;;;;;;7.68;3.17;;;2.30;1.00;;;;;;5032254;28;20029;-64
2022/12/16 02:50:00;;;;;;;9.35;3.20;;;2.10;1.00;;;;;;5032236;28;20087;-64
2022/12/16 02:52:29;;;;;;;5.28;2.50;;;2.10;1.00;;;;;;5031460;28;20120;-64
2022/12/16 02:55:00;;;;;;;9.23;3.03;;;2.10;1.00;;;;;;5031793;28;20050;-64
2022/12/16 02:57:53;;;;;;;8.05;2.95;;;2.10;1.00;;;;;;5030968;28;20045;-64
2022/12/16 03:00:22;;;;;;;7.10;3.00;;;2.00;1.00;;;;;;5030547;28;20049;-64
2022/12/16 03:02:58;;;;;;;7.53;2.85;;;2.00;1.00;;;;;;5031693;28;20041;-64
2022/12/16 03:05:31;;;;;;;;;;;2.10;1.00;;;;;;5031972;28;20080;-64
2022/12/16 03:08:01;;;;;;;7.50;2.58;;;1.90;1.00;;;;;;5031443;28;19917;-64
2022/12/16 03:10:33;;;;;;;6.40;2.63;;;2.00;1.00;;;;;;5024992;28;20378;-64
2022/12/16 03:13:00;;;;;;;8.85;2.72;;;1.90;1.00;;;;;;5028645;28;20049;-64
2022/12/16 03:15:29;;;;;;;11.10;2.55;;;2.00;1.00;;;;;;5029863;28;20371;-64
2022/12/16 03:17:57;;;;;;;7.88;2.70;;;2.00;1.00;;;;;;5018084;28;20091;-64
2022/12/16 03:20:55;;;;;;;8.27;2.58;;;2.10;1.00;;;;;;5031381;28;20042;-64
2022/12/16 03:23:32;;;;;;;7.15;2.88;;;2.10;1.00;;;;;;5032850;28;20452;-64
2022/12/16 03:26:05;;;;;;;6.32;2.95;;;2.10;1.00;;;;;;5027954;28;20103;-64
2022/12/16 03:28:55;;;;;;;7.32;2.80;;;2.10;1.00;;;;;;5035416;28;20037;-64
2022/12/16 03:31:48;;;;;;;6.57;2.80;;;2.00;1.00;;;;;;5029291;28;20088;-64
2022/12/16 03:34:24;;;;;;;9.15;3.05;;;2.00;1.00;;;;;;5029891;28;20065;-64
2022/12/16 03:36:55;;;;;;;13.05;3.13;;;2.00;1.00;;;;;;5033312;28;20124;-64
2022/12/16 03:39:22;;;;;;;9.75;3.13;;;2.00;1.00;;;;;;5035074;28;20048;-64
2022/12/16 03:41:53;;;;;;;8.98;3.22;;;2.10;1.00;;;;;;5033925;28;20111;-64
2022/12/16 03:44:20;;;;;;;6.03;2.60;;;2.10;1.00;;;;;;5035108;28;20405;-64
2022/12/16 03:46:47;;;;;;;8.23;2.78;;;2.30;1.00;;;;;;5035155;28;20040;-64
2022/12/16 03:49:12;;;;;;;10.70;2.95;;;2.30;1.00;;;;;;5035338;28;20045;-64
2022/12/16 03:51:38;;;;;;;7.13;2.70;;;2.50;1.00;;;;;;5027152;28;20043;-64
2022/12/16 03:54:04;;;;;;;14.60;3.00;;;2.60;1.00;;;;;;5035054;28;20038;-64
2022/12/16 03:56:29;;;;;;;11.50;2.90;;;2.80;1.00;;;;;;5033433;28;20145;-64
2022/12/16 03:58:55;;;;;;;8.27;2.58;;;2.80;1.00;;;;;;5034731;28;20502;-64
2022/12/16 04:01:22;;;;;;;11.93;2.55;;;2.90;1.00;;;;;;5033958;28;20508;-64
2022/12/16 04:03:48;;;;;;;8.35;2.88;;;2.70;1.00;;;;;;5034897;28;20037;-64
2022/12/16 04:06:17;;;;;;;9.15;2.78;;;2.60;1.00;;;;;;5034475;28;20103;-64
2022/12/16 04:08:44;;;;;;;8.20;3.15;;;3.40;1.00;;;;;;5033699;28;20044;-64
2022/12/16 04:25:33;;;;;;;11.35;3.42;;;2.70;1.00;;;;;;5034412;28;20052;-64
2022/12/16 04:27:59;;;;;;;9.82;3.35;;;2.50;1.00;;;;;;5033758;28;20533;-64
2022/12/16 04:30:26;;;;;;;8.77;3.83;;;2.50;1.00;;;;;;5030939;28;20040;-64
